createdAt,value
2018-06-24T00:00:07.682Z,1.30
2018-06-24T00:01:07.685Z,1.30
2018-06-24T00:02:07.675Z,1.30
2018-06-24T00:03:07.641Z,1.30
2018-06-24T00:04:07.633Z,1.30
2018-06-24T00:05:07.627Z,1.20
2018-06-24T00:06:07.606Z,1.30
2018-06-24T00:07:07.597Z,1.30
2018-06-24T00:08:07.588Z,1.40
2018-06-24T00:09:07.593Z,1.30
2018-06-24T00:10:07.627Z,1.70
2018-06-24T00:11:07.556Z,1.40
2018-06-24T00:12:07.545Z,1.30
2018-06-24T00:13:07.539Z,1.40
2018-06-24T00:14:07.521Z,1.40
2018-06-24T00:15:07.511Z,1.40
2018-06-24T00:16:07.499Z,1.30
2018-06-24T00:17:07.485Z,1.30
2018-06-24T00:18:07.509Z,1.40
2018-06-24T00:19:07.469Z,1.20
2018-06-24T00:20:07.472Z,1.30
2018-06-24T00:21:07.441Z,1.20
2018-06-24T00:22:07.442Z,1.10
2018-06-24T00:23:07.425Z,1.40
2018-06-24T00:24:07.414Z,1.20
2018-06-24T00:25:07.412Z,1.30
2018-06-24T00:26:07.388Z,1.30
2018-06-24T00:27:07.378Z,1.20
2018-06-24T00:28:07.368Z,1.30
2018-06-24T00:29:07.357Z,1.20
2018-06-24T00:30:07.352Z,1.40
2018-06-24T00:31:07.340Z,1.30
2018-06-24T00:32:07.327Z,1.40
2018-06-24T00:33:07.318Z,1.50
2018-06-24T00:34:07.318Z,1.30
2018-06-24T00:35:07.291Z,1.30
2018-06-24T00:36:07.287Z,1.20
2018-06-24T00:37:07.327Z,1.30
2018-06-24T00:38:07.259Z,1.30
2018-06-24T00:39:07.268Z,1.30
2018-06-24T00:40:07.237Z,1.30
2018-06-24T00:41:07.227Z,1.30
2018-06-24T00:42:07.230Z,1.30
2018-06-24T00:43:07.207Z,1.00
2018-06-24T00:44:07.231Z,1.30
2018-06-24T00:45:07.187Z,1.60
2018-06-24T00:46:07.208Z,1.10
2018-06-24T00:47:07.162Z,1.30
2018-06-24T00:48:07.154Z,1.20
2018-06-24T00:49:07.141Z,1.30
2018-06-24T00:50:07.137Z,1.30
2018-06-24T00:51:07.129Z,1.40
2018-06-24T00:52:07.108Z,1.30
2018-06-24T00:53:07.095Z,1.00
2018-06-24T00:54:07.092Z,1.20
2018-06-24T00:55:07.080Z,1.30
2018-06-24T00:56:07.067Z,1.30
2018-06-24T00:57:07.063Z,1.20
2018-06-24T00:58:07.041Z,1.30
2018-06-24T00:59:07.032Z,1.20
2018-06-24T01:00:07.051Z,1.20
2018-06-24T01:01:07.012Z,1.20
2018-06-24T01:02:07.015Z,1.30
2018-06-24T01:03:06.993Z,1.40
2018-06-24T01:04:06.983Z,1.20
2018-06-24T01:05:06.974Z,1.30
2018-06-24T01:06:06.960Z,1.50
2018-06-24T01:07:06.950Z,1.20
2018-06-24T01:08:06.941Z,1.40
2018-06-24T01:09:06.930Z,1.30
2018-06-24T01:10:06.913Z,1.40
2018-06-24T01:11:06.926Z,1.50
2018-06-24T01:12:06.894Z,1.50
2018-06-24T01:13:06.879Z,1.30
2018-06-24T01:14:06.876Z,1.20
2018-06-24T01:15:06.862Z,1.30
2018-06-24T01:16:06.887Z,1.40
2018-06-24T01:17:06.842Z,1.40
2018-06-24T01:18:06.824Z,1.30
2018-06-24T01:19:06.816Z,1.30
2018-06-24T01:20:06.804Z,1.30
2018-06-24T01:21:06.794Z,1.70
2018-06-24T01:22:06.788Z,1.30
2018-06-24T01:23:06.774Z,1.30
2018-06-24T01:24:06.759Z,1.40
2018-06-24T01:25:06.746Z,1.40
2018-06-24T01:26:06.743Z,1.20
2018-06-24T01:27:06.734Z,1.20
2018-06-24T01:28:06.717Z,1.30
2018-06-24T01:29:06.709Z,1.40
2018-06-24T01:30:06.691Z,1.40
2018-06-24T01:31:06.683Z,1.20
2018-06-24T01:32:06.696Z,1.30
2018-06-24T01:33:06.659Z,1.30
2018-06-24T01:34:06.654Z,1.20
2018-06-24T01:35:06.644Z,1.30
2018-06-24T01:36:06.631Z,1.60
2018-06-24T01:37:06.623Z,1.30
2018-06-24T01:38:06.605Z,1.20
2018-06-24T01:39:06.600Z,1.40
2018-06-24T01:40:06.582Z,1.40
2018-06-24T01:41:06.604Z,1.30
2018-06-24T01:42:06.572Z,1.30
2018-06-24T01:43:06.575Z,1.30
2018-06-24T01:44:06.572Z,1.40
2018-06-24T01:45:06.531Z,1.70
2018-06-24T01:46:06.519Z,1.30
2018-06-24T01:47:06.506Z,1.20
2018-06-24T01:48:06.494Z,1.30
2018-06-24T01:49:06.513Z,1.40
2018-06-24T01:50:06.480Z,1.20
2018-06-24T01:51:06.468Z,1.30
2018-06-24T01:52:06.457Z,1.20
2018-06-24T01:53:06.443Z,1.20
2018-06-24T01:54:06.431Z,1.50
2018-06-24T01:55:06.421Z,1.40
2018-06-24T01:56:06.418Z,1.20
2018-06-24T01:57:06.407Z,1.30
2018-06-24T01:58:06.387Z,1.40
2018-06-24T01:59:06.376Z,1.40
2018-06-24T02:00:06.390Z,1.30
2018-06-24T02:01:06.355Z,1.20
2018-06-24T02:02:06.346Z,1.10
2018-06-24T02:03:06.336Z,1.20
2018-06-24T02:04:06.327Z,1.30
2018-06-24T02:05:06.312Z,1.40
2018-06-24T02:06:06.353Z,1.30
2018-06-24T02:07:06.285Z,1.20
2018-06-24T02:08:06.274Z,1.40
2018-06-24T02:09:06.264Z,1.30
2018-06-24T02:10:06.287Z,1.20
2018-06-24T02:11:06.247Z,1.40
2018-06-24T02:12:06.232Z,1.30
2018-06-24T02:13:06.220Z,1.40
2018-06-24T02:14:06.211Z,1.20
2018-06-24T02:15:06.203Z,1.30
2018-06-24T02:16:06.195Z,1.30
2018-06-24T02:17:06.206Z,1.30
2018-06-24T02:18:06.165Z,1.10
2018-06-24T02:19:06.153Z,1.20
2018-06-24T02:20:06.171Z,1.30
2018-06-24T02:21:06.159Z,1.40
2018-06-24T02:22:06.126Z,1.30
2018-06-24T02:23:06.115Z,1.20
2018-06-24T02:24:06.105Z,1.30
2018-06-24T02:25:06.095Z,1.30
2018-06-24T02:26:06.084Z,1.30
2018-06-24T02:27:06.064Z,1.20
2018-06-24T02:28:06.059Z,1.30
2018-06-24T02:29:06.050Z,1.00
2018-06-24T02:30:06.032Z,1.30
2018-06-24T02:31:06.047Z,1.40
2018-06-24T02:32:06.016Z,1.30
2018-06-24T02:33:06.000Z,1.20
2018-06-24T02:34:05.995Z,1.20
2018-06-24T02:35:05.982Z,1.30
2018-06-24T02:36:05.974Z,1.30
2018-06-24T02:37:05.965Z,1.20
2018-06-24T02:38:05.945Z,1.30
2018-06-24T02:39:05.941Z,1.40
2018-06-24T02:40:05.923Z,1.30
2018-06-24T02:41:05.913Z,1.30
2018-06-24T02:42:05.934Z,1.30
2018-06-24T02:43:05.895Z,1.20
2018-06-24T02:44:05.881Z,1.30
2018-06-24T02:45:05.867Z,1.30
2018-06-24T02:46:05.864Z,1.50
2018-06-24T02:47:05.855Z,1.30
2018-06-24T02:48:05.845Z,1.20
2018-06-24T02:49:05.830Z,1.30
2018-06-24T02:50:05.815Z,1.10
2018-06-24T02:51:05.804Z,1.20
2018-06-24T02:52:05.803Z,1.20
2018-06-24T02:53:05.823Z,1.10
2018-06-24T02:54:05.776Z,1.20
2018-06-24T02:55:05.762Z,1.30
2018-06-24T02:56:05.808Z,1.10
2018-06-24T02:57:05.788Z,1.20
2018-06-24T02:58:05.776Z,1.10
2018-06-24T02:59:05.772Z,1.20
2018-06-24T03:00:05.758Z,1.10
2018-06-24T03:01:05.752Z,1.70
2018-06-24T03:02:05.730Z,1.20
2018-06-24T03:03:05.707Z,1.30
2018-06-24T03:04:05.703Z,1.30
2018-06-24T03:05:05.691Z,1.20
2018-06-24T03:06:06.131Z,1.20
2018-06-24T03:07:05.693Z,1.30
2018-06-24T03:08:05.666Z,1.30
2018-06-24T03:09:05.694Z,1.30
2018-06-24T03:10:05.651Z,1.10
2018-06-24T03:11:05.604Z,1.30
2018-06-24T03:12:05.596Z,1.20
2018-06-24T03:13:05.584Z,1.20
2018-06-24T03:14:05.554Z,1.20
2018-06-24T03:15:05.572Z,1.30
2018-06-24T03:16:05.527Z,1.20
2018-06-24T03:17:05.514Z,1.10
2018-06-24T03:18:05.509Z,1.20
2018-06-24T03:19:05.496Z,1.40
2018-06-24T03:20:05.521Z,1.20
2018-06-24T03:21:05.500Z,1.30
2018-06-24T03:22:05.464Z,1.20
2018-06-24T03:23:05.461Z,1.40
2018-06-24T03:24:05.450Z,1.20
2018-06-24T03:25:05.452Z,1.20
2018-06-24T03:26:05.430Z,1.20
2018-06-24T03:27:05.420Z,1.60
2018-06-24T03:28:05.401Z,1.30
2018-06-24T03:29:05.388Z,1.20
2018-06-24T03:30:05.372Z,1.40
2018-06-24T03:31:05.391Z,1.20
2018-06-24T03:32:05.372Z,1.20
2018-06-24T03:33:05.348Z,1.50
2018-06-24T03:34:05.342Z,1.30
2018-06-24T03:35:05.328Z,1.20
2018-06-24T03:36:05.315Z,1.50
2018-06-24T03:37:05.296Z,1.30
2018-06-24T03:38:05.338Z,1.40
2018-06-24T03:39:05.280Z,1.40
2018-06-24T03:40:05.270Z,1.20
2018-06-24T03:41:05.260Z,1.40
2018-06-24T03:42:05.243Z,1.20
2018-06-24T03:43:05.233Z,1.10
2018-06-24T03:44:05.223Z,1.30
2018-06-24T03:45:05.211Z,1.30
2018-06-24T03:46:05.206Z,1.10
2018-06-24T03:47:05.221Z,1.30
2018-06-24T03:48:05.180Z,1.10
2018-06-24T03:49:05.167Z,1.20
2018-06-24T03:50:05.168Z,1.20
2018-06-24T03:51:05.196Z,1.40
2018-06-24T03:52:05.137Z,1.30
2018-06-24T03:53:05.160Z,1.30
2018-06-24T03:54:05.111Z,1.20
2018-06-24T03:55:05.102Z,1.30
2018-06-24T03:56:05.091Z,1.20
2018-06-24T03:57:05.079Z,1.10
2018-06-24T03:58:05.105Z,1.20
2018-06-24T03:59:05.059Z,1.00
2018-06-24T04:00:05.049Z,1.20
2018-06-24T04:01:05.040Z,1.20
2018-06-24T04:02:05.022Z,1.20
2018-06-24T04:03:05.041Z,1.30
2018-06-24T04:04:05.006Z,1.20
2018-06-24T04:05:04.996Z,1.30
2018-06-24T04:06:04.980Z,1.30
2018-06-24T04:07:04.975Z,1.20
2018-06-24T04:08:04.960Z,1.10
2018-06-24T04:09:04.950Z,1.40
2018-06-24T04:10:04.944Z,1.30
2018-06-24T04:11:04.931Z,1.10
2018-06-24T04:12:04.919Z,1.20
2018-06-24T04:13:04.918Z,1.30
2018-06-24T04:14:04.920Z,1.10
2018-06-24T04:15:04.885Z,1.30
2018-06-24T04:16:04.876Z,1.20
2018-06-24T04:17:04.861Z,1.30
2018-06-24T04:18:04.857Z,1.10
2018-06-24T04:19:04.845Z,1.30
2018-06-24T04:20:04.833Z,1.20
2018-06-24T04:21:04.817Z,1.50
2018-06-24T04:22:04.812Z,1.30
2018-06-24T04:23:04.799Z,1.20
2018-06-24T04:24:04.793Z,1.20
2018-06-24T04:25:04.803Z,1.10
2018-06-24T04:26:04.761Z,1.30
2018-06-24T04:27:04.753Z,1.20
2018-06-24T04:28:04.742Z,1.20
2018-06-24T04:29:04.731Z,1.30
2018-06-24T04:30:04.754Z,1.20
2018-06-24T04:31:04.711Z,1.30
2018-06-24T04:32:04.700Z,1.20
2018-06-24T04:33:04.691Z,1.10
2018-06-24T04:34:04.674Z,1.20
2018-06-24T04:35:04.663Z,1.40
2018-06-24T04:36:04.656Z,1.20
2018-06-24T04:37:04.646Z,1.20
2018-06-24T04:38:04.629Z,1.20
2018-06-24T04:39:04.619Z,1.20
2018-06-24T04:40:04.610Z,1.30
2018-06-24T04:41:04.606Z,1.10
2018-06-24T04:42:04.591Z,1.30
2018-06-24T04:43:04.579Z,1.20
2018-06-24T04:44:04.568Z,1.30
2018-06-24T04:45:04.571Z,1.00
2018-06-24T04:46:04.557Z,1.20
2018-06-24T04:47:04.531Z,1.20
2018-06-24T04:48:04.523Z,1.20
2018-06-24T04:49:04.506Z,1.10
2018-06-24T04:50:04.508Z,1.10
2018-06-24T04:51:04.516Z,1.20
2018-06-24T04:52:04.476Z,1.10
2018-06-24T04:53:04.463Z,1.20
2018-06-24T04:54:04.460Z,1.10
2018-06-24T04:55:04.443Z,1.20
2018-06-24T04:56:04.436Z,1.20
2018-06-24T04:57:04.432Z,1.00
2018-06-24T04:58:04.406Z,1.20
2018-06-24T04:59:04.397Z,1.50
2018-06-24T05:00:04.385Z,1.40
2018-06-24T05:01:04.373Z,1.30
2018-06-24T05:02:04.397Z,1.10
2018-06-24T05:03:04.361Z,1.20
2018-06-24T05:04:04.345Z,1.20
2018-06-24T05:05:04.381Z,1.20
2018-06-24T05:06:04.322Z,1.20
2018-06-24T05:07:04.308Z,1.10
2018-06-24T05:08:04.302Z,1.20
2018-06-24T05:09:04.291Z,1.40
2018-06-24T05:10:04.275Z,1.10
2018-06-24T05:11:04.264Z,1.20
2018-06-24T05:12:04.252Z,1.20
2018-06-24T05:13:04.241Z,1.20
2018-06-24T05:14:04.235Z,1.50
2018-06-24T05:15:04.223Z,1.20
2018-06-24T05:16:04.212Z,1.20
2018-06-24T05:17:04.205Z,1.20
2018-06-24T05:18:04.211Z,1.20
2018-06-24T05:19:04.175Z,1.20
2018-06-24T05:20:04.169Z,1.10
2018-06-24T05:21:04.153Z,1.00
2018-06-24T05:22:04.148Z,1.20
2018-06-24T05:23:04.165Z,1.20
2018-06-24T05:24:04.124Z,1.10
2018-06-24T05:25:04.107Z,1.20
2018-06-24T05:26:04.103Z,1.30
2018-06-24T05:27:04.088Z,1.20
2018-06-24T05:28:04.077Z,1.30
2018-06-24T05:29:04.095Z,1.30
2018-06-24T05:30:04.050Z,1.30
2018-06-24T05:31:04.041Z,1.30
2018-06-24T05:32:04.030Z,1.30
2018-06-24T05:33:04.018Z,1.30
2018-06-24T05:34:04.014Z,1.30
2018-06-24T05:35:04.001Z,1.20
2018-06-24T05:36:03.991Z,1.10
2018-06-24T05:37:03.984Z,1.40
2018-06-24T05:38:03.961Z,1.20
2018-06-24T05:39:03.968Z,1.10
2018-06-24T05:40:03.975Z,1.20
2018-06-24T05:41:03.935Z,1.10
2018-06-24T05:42:03.916Z,1.00
2018-06-24T05:43:03.927Z,1.20
2018-06-24T05:44:03.897Z,0.90
2018-06-24T05:45:03.883Z,1.20
2018-06-24T05:46:03.881Z,1.10
2018-06-24T05:47:03.882Z,1.20
2018-06-24T05:48:03.858Z,1.20
2018-06-24T05:49:03.846Z,1.10
2018-06-24T05:50:03.827Z,1.20
2018-06-24T05:51:03.863Z,1.20
2018-06-24T05:52:03.808Z,1.30
2018-06-24T05:53:03.794Z,1.30
2018-06-24T05:54:03.790Z,1.50
2018-06-24T05:55:03.778Z,1.10
2018-06-24T05:56:03.776Z,1.00
2018-06-24T05:57:03.752Z,1.20
2018-06-24T05:58:03.746Z,1.20
2018-06-24T05:59:03.731Z,1.20
2018-06-24T06:00:03.722Z,2.00
2018-06-24T06:01:03.722Z,2.00
2018-06-24T06:02:03.696Z,3.10
2018-06-24T06:03:03.686Z,4.10
2018-06-24T06:04:03.679Z,3.10
2018-06-24T06:05:03.660Z,1.90
2018-06-24T06:06:03.659Z,1.70
2018-06-24T06:07:03.664Z,1.40
2018-06-24T06:08:03.632Z,1.60
2018-06-24T06:09:03.623Z,2.30
2018-06-24T06:10:03.674Z,1.70
2018-06-24T06:11:03.599Z,1.70
2018-06-24T06:12:03.603Z,2.00
2018-06-24T06:13:03.583Z,1.20
2018-06-24T06:14:03.569Z,1.30
2018-06-24T06:15:03.611Z,1.80
2018-06-24T06:16:03.612Z,1.70
2018-06-24T06:17:03.560Z,2.40
2018-06-24T06:18:03.531Z,1.90
2018-06-24T06:19:03.515Z,1.60
2018-06-24T06:20:03.581Z,2.90
2018-06-24T06:21:03.496Z,1.20
2018-06-24T06:22:03.482Z,2.20
2018-06-24T06:23:03.471Z,3.50
2018-06-24T06:24:03.557Z,1.50
2018-06-24T06:25:03.501Z,5.00
2018-06-24T06:26:03.441Z,18.50
2018-06-24T06:27:03.427Z,11.70
2018-06-24T06:28:03.418Z,10.30
2018-06-24T06:29:03.405Z,10.90
2018-06-24T06:30:03.399Z,9.90
2018-06-24T06:31:03.383Z,8.00
2018-06-24T06:32:03.373Z,11.60
2018-06-24T06:33:03.398Z,7.90
2018-06-24T06:34:03.348Z,9.50
2018-06-24T06:35:03.336Z,10.60
2018-06-24T06:36:03.326Z,8.40
2018-06-24T06:37:03.312Z,9.90
2018-06-24T06:38:03.307Z,6.60
2018-06-24T06:39:03.300Z,5.80
2018-06-24T06:40:03.282Z,6.00
2018-06-24T06:41:03.275Z,3.70
2018-06-24T06:42:03.259Z,5.60
2018-06-24T06:43:03.247Z,6.10
2018-06-24T06:44:03.240Z,5.90
2018-06-24T06:45:03.288Z,5.30
2018-06-24T06:46:03.217Z,3.80
2018-06-24T06:47:03.204Z,3.30
2018-06-24T06:48:03.195Z,3.80
2018-06-24T06:49:03.208Z,2.50
2018-06-24T06:50:03.175Z,2.80
2018-06-24T06:51:03.202Z,4.10
2018-06-24T06:52:03.153Z,5.20
2018-06-24T06:53:03.140Z,3.30
2018-06-24T06:54:03.125Z,4.40
2018-06-24T06:55:03.114Z,2.70
2018-06-24T06:56:03.101Z,5.50
2018-06-24T06:57:03.094Z,5.50
2018-06-24T06:58:03.083Z,5.70
2018-06-24T06:59:03.076Z,6.80
2018-06-24T07:00:03.101Z,4.80
2018-06-24T07:01:03.049Z,4.30
2018-06-24T07:02:03.046Z,5.80
2018-06-24T07:03:03.034Z,5.10
2018-06-24T07:04:03.022Z,4.30
2018-06-24T07:05:03.011Z,5.00
2018-06-24T07:06:02.998Z,6.30
2018-06-24T07:07:02.982Z,3.50
2018-06-24T07:08:02.974Z,4.00
2018-06-24T07:09:02.965Z,4.90
2018-06-24T07:10:02.963Z,2.30
2018-06-24T07:11:02.947Z,3.30
2018-06-24T07:12:02.934Z,4.20
2018-06-24T07:13:02.998Z,5.00
2018-06-24T07:14:02.909Z,3.00
2018-06-24T07:15:02.895Z,2.70
2018-06-24T07:16:02.895Z,4.60
2018-06-24T07:17:02.878Z,4.40
2018-06-24T07:18:02.863Z,2.80
2018-06-24T07:19:02.850Z,3.40
2018-06-24T07:20:02.862Z,3.50
2018-06-24T07:21:02.858Z,5.00
2018-06-24T07:22:02.850Z,4.70
2018-06-24T07:23:02.818Z,2.80
2018-06-24T07:24:02.837Z,2.20
2018-06-24T07:25:02.818Z,2.80
2018-06-24T07:26:02.775Z,2.60
2018-06-24T07:27:02.766Z,3.20
2018-06-24T07:28:02.750Z,2.30
2018-06-24T07:29:02.740Z,1.60
2018-06-24T07:30:02.733Z,3.30
2018-06-24T07:31:02.725Z,2.00
2018-06-24T07:32:02.741Z,3.10
2018-06-24T07:33:02.758Z,2.10
2018-06-24T07:34:02.688Z,3.00
2018-06-24T07:35:02.679Z,2.10
2018-06-24T07:36:02.683Z,1.90
2018-06-24T07:37:02.655Z,2.40
2018-06-24T07:38:02.644Z,2.10
2018-06-24T07:39:02.682Z,2.40
2018-06-24T07:40:02.619Z,2.20
2018-06-24T07:41:02.609Z,1.90
2018-06-24T07:42:02.599Z,1.60
2018-06-24T07:43:02.616Z,2.50
2018-06-24T07:44:02.581Z,2.50
2018-06-24T07:45:02.566Z,1.60
2018-06-24T07:46:02.552Z,2.30
2018-06-24T07:47:02.539Z,2.50
2018-06-24T07:48:02.535Z,2.10
2018-06-24T07:49:02.522Z,2.00
2018-06-24T07:50:02.508Z,2.00
2018-06-24T07:51:02.496Z,2.00
2018-06-24T07:52:02.484Z,1.80
2018-06-24T07:53:02.475Z,2.30
2018-06-24T07:54:02.472Z,1.50
2018-06-24T07:55:02.460Z,2.20
2018-06-24T07:56:02.450Z,1.80
2018-06-24T07:57:02.436Z,1.80
2018-06-24T07:58:02.420Z,1.40
2018-06-24T07:59:02.434Z,1.50
2018-06-24T08:00:02.397Z,1.60
2018-06-24T08:01:02.386Z,2.30
2018-06-24T08:02:02.379Z,1.60
2018-06-24T08:03:02.369Z,1.90
2018-06-24T08:04:02.351Z,1.40
2018-06-24T08:05:02.347Z,1.70
2018-06-24T08:06:02.334Z,2.10
2018-06-24T08:07:02.326Z,1.80
2018-06-24T08:08:02.313Z,1.50
2018-06-24T08:09:02.302Z,1.30
2018-06-24T08:10:02.319Z,1.60
2018-06-24T08:11:02.274Z,1.50
2018-06-24T08:12:02.265Z,1.40
2018-06-24T08:13:02.254Z,1.30
2018-06-24T08:14:02.245Z,1.40
2018-06-24T08:15:02.239Z,3.30
2018-06-24T08:16:02.245Z,4.30
2018-06-24T08:17:02.217Z,5.90
2018-06-24T08:18:02.199Z,4.70
2018-06-24T08:19:02.187Z,4.40
2018-06-24T08:20:02.184Z,4.70
2018-06-24T08:21:02.196Z,6.90
2018-06-24T08:22:02.169Z,5.80
2018-06-24T08:23:02.143Z,6.00
2018-06-24T08:24:02.132Z,6.90
2018-06-24T08:25:02.122Z,5.30
2018-06-24T08:26:02.115Z,4.80
2018-06-24T08:27:02.109Z,7.80
2018-06-24T08:28:02.093Z,6.70
2018-06-24T08:29:02.082Z,7.80
2018-06-24T08:30:02.073Z,6.50
2018-06-24T08:31:02.056Z,5.30
2018-06-24T08:32:02.063Z,4.50
2018-06-24T08:33:02.040Z,4.20
2018-06-24T08:34:02.024Z,5.10
2018-06-24T08:35:02.016Z,4.30
2018-06-24T08:36:01.998Z,6.50
2018-06-24T08:37:02.018Z,5.30
2018-06-24T08:38:01.984Z,7.10
2018-06-24T08:39:02.019Z,4.80
2018-06-24T08:40:01.965Z,6.00
2018-06-24T08:41:01.954Z,4.50
2018-06-24T08:42:01.934Z,5.10
2018-06-24T08:43:01.921Z,4.70
2018-06-24T08:44:01.910Z,5.40
2018-06-24T08:45:01.909Z,4.90
2018-06-24T08:46:01.891Z,6.50
2018-06-24T08:47:01.883Z,5.10
2018-06-24T08:48:01.899Z,6.20
2018-06-24T08:49:01.857Z,5.50
2018-06-24T08:50:01.845Z,6.20
2018-06-24T08:51:01.832Z,4.70
2018-06-24T08:52:01.846Z,5.00
2018-06-24T08:53:01.813Z,6.80
2018-06-24T08:54:01.805Z,7.30
2018-06-24T08:55:01.786Z,4.90
2018-06-24T08:56:01.776Z,6.50
2018-06-24T08:57:01.766Z,4.80
2018-06-24T08:58:01.757Z,4.90
2018-06-24T08:59:01.777Z,5.10
2018-06-24T09:00:01.739Z,4.50
2018-06-24T09:01:01.727Z,5.30
2018-06-24T09:02:01.711Z,5.00
2018-06-24T09:03:01.699Z,4.40
2018-06-24T09:04:01.698Z,6.50
2018-06-24T09:05:01.686Z,4.10
2018-06-24T09:06:01.668Z,4.40
2018-06-24T09:07:01.659Z,4.90
2018-06-24T09:08:01.649Z,4.60
2018-06-24T09:09:01.632Z,4.20
2018-06-24T09:10:01.625Z,4.70
2018-06-24T09:11:01.616Z,4.50
2018-06-24T09:12:01.605Z,3.40
2018-06-24T09:13:01.591Z,3.80
2018-06-24T09:14:01.634Z,3.90
2018-06-24T09:15:01.593Z,3.90
2018-06-24T09:16:01.555Z,3.80
2018-06-24T09:17:01.546Z,3.50
2018-06-24T09:18:01.557Z,2.70
2018-06-24T09:19:01.529Z,3.00
2018-06-24T09:20:01.524Z,3.20
2018-06-24T09:21:01.508Z,3.50
2018-06-24T09:22:01.549Z,3.00
2018-06-24T09:23:01.479Z,2.80
2018-06-24T09:24:01.473Z,3.00
2018-06-24T09:25:01.459Z,3.10
2018-06-24T09:26:01.451Z,3.20
2018-06-24T09:27:01.433Z,2.30
2018-06-24T09:28:01.423Z,2.80
2018-06-24T09:29:01.486Z,3.00
2018-06-24T09:30:01.404Z,2.60
2018-06-24T09:31:01.423Z,2.50
2018-06-24T09:32:01.385Z,2.30
2018-06-24T09:33:01.373Z,2.40
2018-06-24T09:34:01.357Z,2.00
2018-06-24T09:35:01.344Z,3.70
2018-06-24T09:36:01.425Z,3.60
2018-06-24T09:37:01.326Z,2.40
2018-06-24T09:38:01.315Z,3.50
2018-06-24T09:39:01.327Z,2.00
2018-06-24T09:40:01.288Z,2.10
2018-06-24T09:41:01.320Z,2.90
2018-06-24T09:42:01.300Z,1.70
2018-06-24T09:43:01.261Z,2.00
2018-06-24T09:44:01.250Z,2.80
2018-06-24T09:45:01.248Z,3.60
2018-06-24T09:46:01.225Z,2.10
2018-06-24T09:47:01.210Z,1.50
2018-06-24T09:48:01.208Z,1.80
2018-06-24T09:49:01.196Z,2.40
2018-06-24T09:50:01.182Z,1.90
2018-06-24T09:51:01.177Z,3.00
2018-06-24T09:52:01.161Z,2.00
2018-06-24T09:53:01.169Z,2.10
2018-06-24T09:54:01.134Z,2.00
2018-06-24T09:55:01.120Z,2.00
2018-06-24T09:56:01.229Z,2.20
2018-06-24T09:57:01.103Z,2.30
2018-06-24T09:58:01.119Z,2.30
2018-06-24T09:59:01.078Z,1.90
2018-06-24T10:00:01.071Z,1.90
2018-06-24T10:01:01.060Z,1.90
2018-06-24T10:02:01.053Z,1.30
2018-06-24T10:03:01.038Z,1.80
2018-06-24T10:04:01.030Z,2.70
2018-06-24T10:05:01.016Z,2.00
2018-06-24T10:06:01.000Z,2.20
2018-06-24T10:07:00.992Z,1.20
2018-06-24T10:08:00.976Z,1.50
2018-06-24T10:09:00.975Z,1.90
2018-06-24T10:10:00.957Z,1.80
2018-06-24T10:11:00.976Z,1.40
2018-06-24T10:12:00.942Z,1.20
2018-06-24T10:13:00.926Z,1.70
2018-06-24T10:14:00.947Z,2.10
2018-06-24T10:15:00.910Z,1.50
2018-06-24T10:16:00.895Z,1.40
2018-06-24T10:17:00.881Z,2.20
2018-06-24T10:18:00.869Z,1.70
2018-06-24T10:19:00.854Z,1.70
2018-06-24T10:20:00.851Z,1.60
2018-06-24T10:21:00.842Z,1.20
2018-06-24T10:22:00.824Z,1.20
2018-06-24T10:23:00.818Z,1.20
2018-06-24T10:24:00.808Z,1.60
2018-06-24T10:25:00.823Z,1.30
2018-06-24T10:26:00.838Z,1.50
2018-06-24T10:27:00.764Z,1.50
2018-06-24T10:28:00.759Z,1.90
2018-06-24T10:29:00.747Z,1.30
2018-06-24T10:30:00.736Z,1.50
2018-06-24T10:31:00.723Z,2.40
2018-06-24T10:32:00.710Z,1.70
2018-06-24T10:33:00.703Z,2.40
2018-06-24T10:34:00.692Z,2.90
2018-06-24T10:35:00.683Z,2.20
2018-06-24T10:36:00.700Z,1.90
2018-06-24T10:37:00.658Z,3.20
2018-06-24T10:38:00.647Z,2.00
2018-06-24T10:39:00.644Z,1.90
2018-06-24T10:40:00.651Z,2.20
2018-06-24T10:41:00.613Z,1.60
2018-06-24T10:42:00.608Z,1.80
2018-06-24T10:43:00.594Z,2.30
2018-06-24T10:44:00.576Z,2.10
2018-06-24T10:45:00.568Z,2.00
2018-06-24T10:46:00.560Z,1.80
2018-06-24T10:47:00.566Z,1.90
2018-06-24T10:48:00.539Z,2.60
2018-06-24T10:49:00.530Z,2.10
2018-06-24T10:50:00.512Z,1.60
2018-06-24T10:51:00.498Z,1.60
2018-06-24T10:52:00.491Z,1.90
2018-06-24T10:53:00.531Z,1.90
2018-06-24T10:54:00.470Z,2.60
2018-06-24T10:55:00.469Z,1.30
2018-06-24T10:56:00.451Z,1.80
2018-06-24T10:57:00.465Z,2.00
2018-06-24T10:58:00.425Z,1.90
2018-06-24T10:59:00.412Z,1.40
2018-06-24T11:00:00.415Z,2.00
2018-06-24T11:01:00.395Z,2.10
2018-06-24T11:02:00.435Z,1.40
2018-06-24T11:03:00.369Z,1.90
2018-06-24T11:04:00.357Z,2.10
2018-06-24T11:05:00.350Z,1.60
2018-06-24T11:06:00.342Z,1.60
2018-06-24T11:07:00.348Z,1.50
2018-06-24T11:08:00.345Z,1.20
2018-06-24T11:09:00.310Z,1.50
2018-06-24T11:10:00.292Z,1.50
2018-06-24T11:11:00.282Z,2.30
2018-06-24T11:12:00.272Z,1.60
2018-06-24T11:13:00.262Z,1.70
2018-06-24T11:14:00.255Z,1.60
2018-06-24T11:15:00.243Z,1.70
2018-06-24T11:16:00.234Z,1.30
2018-06-24T11:17:00.214Z,1.70
2018-06-24T11:18:00.210Z,1.60
2018-06-24T11:19:00.227Z,2.10
2018-06-24T11:20:00.186Z,1.30
2018-06-24T11:21:00.177Z,1.70
2018-06-24T11:22:00.159Z,1.60
2018-06-24T11:23:00.151Z,1.50
2018-06-24T11:24:00.140Z,1.80
2018-06-24T11:25:00.129Z,1.80
2018-06-24T11:26:00.122Z,1.50
2018-06-24T11:27:00.109Z,1.20
2018-06-24T11:28:00.096Z,1.20
2018-06-24T11:29:00.088Z,1.40
2018-06-24T11:30:00.096Z,1.70
2018-06-24T11:31:00.106Z,1.60
2018-06-24T11:32:00.053Z,1.20
2018-06-24T11:33:00.047Z,1.30
2018-06-24T11:34:00.027Z,1.20
2018-06-24T11:35:00.047Z,1.10
2018-06-24T11:36:00.016Z,1.90
2018-06-24T11:37:00.079Z,1.60
2018-06-24T11:37:59.989Z,1.30
2018-06-24T11:38:59.977Z,1.30
2018-06-24T11:39:59.965Z,1.40
2018-06-24T11:40:59.959Z,1.40
2018-06-24T11:41:59.939Z,1.20
2018-06-24T11:42:59.931Z,1.20
2018-06-24T11:43:59.918Z,1.40
2018-06-24T11:44:59.906Z,1.20
2018-06-24T11:45:59.930Z,1.50
2018-06-24T11:46:59.887Z,1.30
2018-06-24T11:47:59.876Z,1.30
2018-06-24T11:48:59.861Z,1.10
2018-06-24T11:49:59.856Z,1.30
2018-06-24T11:50:59.843Z,1.40
2018-06-24T11:51:59.834Z,1.30
2018-06-24T11:52:59.823Z,1.20
2018-06-24T11:53:59.806Z,1.40
2018-06-24T11:54:59.801Z,1.30
2018-06-24T11:55:59.817Z,1.20
2018-06-24T11:56:59.837Z,1.10
2018-06-24T11:57:59.769Z,1.00
2018-06-24T11:58:59.755Z,1.10
2018-06-24T11:59:59.744Z,1.10
2018-06-24T12:00:59.735Z,1.30
2018-06-24T12:01:59.726Z,1.20
2018-06-24T12:02:59.708Z,1.20
2018-06-24T12:03:59.729Z,1.40
2018-06-24T12:04:59.691Z,1.40
2018-06-24T12:05:59.674Z,0.90
2018-06-24T12:06:59.706Z,1.10
2018-06-24T12:07:59.655Z,1.10
2018-06-24T12:08:59.642Z,1.10
2018-06-24T12:09:59.641Z,1.10
2018-06-24T12:10:59.628Z,1.20
2018-06-24T12:11:59.615Z,1.10
2018-06-24T12:12:59.605Z,1.20
2018-06-24T12:13:59.587Z,1.20
2018-06-24T12:14:59.581Z,1.20
2018-06-24T12:15:59.569Z,1.20
2018-06-24T12:16:59.585Z,1.10
2018-06-24T12:17:59.558Z,1.10
2018-06-24T12:18:59.537Z,1.30
2018-06-24T12:19:59.524Z,1.30
2018-06-24T12:20:59.512Z,1.00
2018-06-24T12:21:59.516Z,1.50
2018-06-24T12:22:59.501Z,1.00
2018-06-24T12:23:59.483Z,1.10
2018-06-24T12:24:59.476Z,1.00
2018-06-24T12:25:59.464Z,1.00
2018-06-24T12:26:59.449Z,1.10
2018-06-24T12:27:59.469Z,1.50
2018-06-24T12:28:59.425Z,1.10
2018-06-24T12:29:59.421Z,1.10
2018-06-24T12:30:59.408Z,0.90
2018-06-24T12:31:59.396Z,1.50
2018-06-24T12:32:59.392Z,0.90
2018-06-24T12:33:59.378Z,1.20
2018-06-24T12:34:59.361Z,1.10
2018-06-24T12:35:59.353Z,1.00
2018-06-24T12:36:59.345Z,1.00
2018-06-24T12:37:59.325Z,0.90
2018-06-24T12:38:59.318Z,1.10
2018-06-24T12:39:59.307Z,1.00
2018-06-24T12:40:59.295Z,1.10
2018-06-24T12:41:59.288Z,1.10
2018-06-24T12:42:59.284Z,1.10
2018-06-24T12:43:59.291Z,1.10
2018-06-24T12:44:59.257Z,1.30
2018-06-24T12:45:59.241Z,1.10
2018-06-24T12:46:59.232Z,1.00
2018-06-24T12:47:59.221Z,1.30
2018-06-24T12:48:59.208Z,1.00
2018-06-24T12:49:59.205Z,1.30
2018-06-24T12:50:59.191Z,1.10
2018-06-24T12:51:59.177Z,1.30
2018-06-24T12:52:59.166Z,1.20
2018-06-24T12:53:59.160Z,1.10
2018-06-24T12:54:59.179Z,1.90
2018-06-24T12:55:59.137Z,2.60
2018-06-24T12:56:59.130Z,2.00
2018-06-24T12:57:59.109Z,1.90
2018-06-24T12:58:59.310Z,1.50
2018-06-24T12:59:59.392Z,2.10
2018-06-24T13:00:59.315Z,1.00
2018-06-24T13:01:59.073Z,1.30
2018-06-24T13:02:59.066Z,1.70
2018-06-24T13:03:59.047Z,1.50
2018-06-24T13:04:59.039Z,1.50
2018-06-24T13:05:59.055Z,1.40
2018-06-24T13:06:59.012Z,1.10
2018-06-24T13:07:59.021Z,1.70
2018-06-24T13:08:58.995Z,1.80
2018-06-24T13:09:58.976Z,1.40
2018-06-24T13:10:58.968Z,1.00
2018-06-24T13:11:58.959Z,1.40
2018-06-24T13:12:58.944Z,1.30
2018-06-24T13:13:58.940Z,2.00
2018-06-24T13:14:58.927Z,1.50
2018-06-24T13:15:58.917Z,1.30
2018-06-24T13:16:58.910Z,1.10
2018-06-24T13:17:58.956Z,1.60